sensor_id;sensor_type;location;lat;lon;timestamp;pressure;altitude;pressure_sealevel;temperature
78961;BMP280;68362;45.970;12.646;2023-04-15T00:00:17;100281.56;;;8.08
78961;BMP280;68362;45.970;12.646;2023-04-15T00:01:39;100280.53;;;8.15
78961;BMP280;68362;45.970;12.646;2023-04-15T00:02:42;100285.66;;;8.29
78961;BMP280;68362;45.970;12.646;2023-04-15T00:03:45;100287.63;;;8.40
78961;BMP280;68362;45.970;12.646;2023-04-15T00:04:48;100280.38;;;8.42
78961;BMP280;68362;45.970;12.646;2023-04-15T00:05:50;100271.94;;;8.40
78961;BMP280;68362;45.970;12.646;2023-04-15T00:06:53;100275.09;;;8.17
78961;BMP280;68362;45.970;12.646;2023-04-15T00:07:55;100270.75;;;8.04
78961;BMP280;68362;45.970;12.646;2023-04-15T00:08:57;100276.75;;;8.11
78961;BMP280;68362;45.970;12.646;2023-04-15T00:10:00;100277.56;;;8.05
78961;BMP280;68362;45.970;12.646;2023-04-15T00:11:03;100272.75;;;8.02
78961;BMP280;68362;45.970;12.646;2023-04-15T00:12:06;100280.03;;;7.93
78961;BMP280;68362;45.970;12.646;2023-04-15T00:13:08;100271.00;;;7.96
78961;BMP280;68362;45.970;12.646;2023-04-15T00:14:11;100277.25;;;7.95
78961;BMP280;68362;45.970;12.646;2023-04-15T00:15:14;100269.19;;;7.96
78961;BMP280;68362;45.970;12.646;2023-04-15T00:16:17;100271.50;;;8.11
78961;BMP280;68362;45.970;12.646;2023-04-15T00:17:19;100272.69;;;8.15
78961;BMP280;68362;45.970;12.646;2023-04-15T00:18:21;100266.69;;;8.08
78961;BMP280;68362;45.970;12.646;2023-04-15T00:19:24;100271.16;;;8.01
78961;BMP280;68362;45.970;12.646;2023-04-15T00:20:26;100268.66;;;8.19
78961;BMP280;68362;45.970;12.646;2023-04-15T00:21:28;100267.81;;;8.25
78961;BMP280;68362;45.970;12.646;2023-04-15T00:22:30;100269.72;;;8.37
78961;BMP280;68362;45.970;12.646;2023-04-15T00:23:33;100268.53;;;8.39
78961;BMP280;68362;45.970;12.646;2023-04-15T00:24:37;100276.56;;;8.38
78961;BMP280;68362;45.970;12.646;2023-04-15T00:25:39;100269.66;;;8.50
78961;BMP280;68362;45.970;12.646;2023-04-15T00:26:41;100270.47;;;8.44
78961;BMP280;68362;45.970;12.646;2023-04-15T00:27:43;100267.75;;;8.32
78961;BMP280;68362;45.970;12.646;2023-04-15T00:28:45;100268.91;;;8.43
78961;BMP280;68362;45.970;12.646;2023-04-15T00:29:47;100271.53;;;8.43
78961;BMP280;68362;45.970;12.646;2023-04-15T00:30:49;100276.94;;;8.41
78961;BMP280;68362;45.970;12.646;2023-04-15T00:31:52;100270.41;;;8.25
78961;BMP280;68362;45.970;12.646;2023-04-15T00:32:54;100266.28;;;8.11
78961;BMP280;68362;45.970;12.646;2023-04-15T00:33:56;100271.28;;;8.13
78961;BMP280;68362;45.970;12.646;2023-04-15T00:34:58;100263.47;;;8.06
78961;BMP280;68362;45.970;12.646;2023-04-15T00:36:00;100264.81;;;8.22
78961;BMP280;68362;45.970;12.646;2023-04-15T00:37:02;100256.66;;;8.05
78961;BMP280;68362;45.970;12.646;2023-04-15T00:38:05;100259.91;;;8.00
78961;BMP280;68362;45.970;12.646;2023-04-15T00:39:10;100259.97;;;7.87
78961;BMP280;68362;45.970;12.646;2023-04-15T00:40:12;100255.34;;;7.83
78961;BMP280;68362;45.970;12.646;2023-04-15T00:41:14;100250.09;;;7.96
78961;BMP280;68362;45.970;12.646;2023-04-15T00:42:17;100243.47;;;7.93
78961;BMP280;68362;45.970;12.646;2023-04-15T00:43:19;100250.72;;;7.85
78961;BMP280;68362;45.970;12.646;2023-04-15T00:44:22;100252.53;;;7.84
78961;BMP280;68362;45.970;12.646;2023-04-15T00:45:24;100250.16;;;7.76
78961;BMP280;68362;45.970;12.646;2023-04-15T00:46:28;100251.19;;;7.75
78961;BMP280;68362;45.970;12.646;2023-04-15T00:47:32;100246.47;;;7.90
78961;BMP280;68362;45.970;12.646;2023-04-15T00:48:35;100243.88;;;7.90
78961;BMP280;68362;45.970;12.646;2023-04-15T00:49:37;100241.66;;;7.94
78961;BMP280;68362;45.970;12.646;2023-04-15T00:50:39;100248.72;;;7.87
78961;BMP280;68362;45.970;12.646;2023-04-15T00:51:41;100246.13;;;7.73
78961;BMP280;68362;45.970;12.646;2023-04-15T00:52:43;100242.31;;;7.76
78961;BMP280;68362;45.970;12.646;2023-04-15T00:53:46;100240.66;;;7.95
78961;BMP280;68362;45.970;12.646;2023-04-15T00:54:48;100241.97;;;7.72
78961;BMP280;68362;45.970;12.646;2023-04-15T00:55:52;100243.06;;;7.90
78961;BMP280;68362;45.970;12.646;2023-04-15T00:56:55;100240.72;;;7.75
78961;BMP280;68362;45.970;12.646;2023-04-15T00:57:57;100242.97;;;7.71
78961;BMP280;68362;45.970;12.646;2023-04-15T00:59:00;100240.69;;;7.82
78961;BMP280;68362;45.970;12.646;2023-04-15T01:00:03;100235.38;;;7.57
78961;BMP280;68362;45.970;12.646;2023-04-15T01:01:09;100239.81;;;7.49
78961;BMP280;68362;45.970;12.646;2023-04-15T01:02:12;100234.00;;;7.54
78961;BMP280;68362;45.970;12.646;2023-04-15T01:03:14;100239.53;;;7.71
78961;BMP280;68362;45.970;12.646;2023-04-15T01:04:16;100237.75;;;7.71
78961;BMP280;68362;45.970;12.646;2023-04-15T01:05:19;100239.97;;;7.61
78961;BMP280;68362;45.970;12.646;2023-04-15T01:06:21;100234.38;;;7.58
78961;BMP280;68362;45.970;12.646;2023-04-15T01:07:23;100231.19;;;7.49
78961;BMP280;68362;45.970;12.646;2023-04-15T01:08:28;100227.75;;;7.55
78961;BMP280;68362;45.970;12.646;2023-04-15T01:09:31;100225.38;;;7.54
78961;BMP280;68362;45.970;12.646;2023-04-15T01:10:34;100231.59;;;7.46
78961;BMP280;68362;45.970;12.646;2023-04-15T01:11:36;100229.63;;;7.48
78961;BMP280;68362;45.970;12.646;2023-04-15T01:12:39;100234.63;;;7.43
78961;BMP280;68362;45.970;12.646;2023-04-15T01:13:41;100229.84;;;7.40
78961;BMP280;68362;45.970;12.646;2023-04-15T01:14:44;100236.28;;;7.31
78961;BMP280;68362;45.970;12.646;2023-04-15T01:15:46;100232.28;;;7.21
78961;BMP280;68362;45.970;12.646;2023-04-15T01:16:48;100230.59;;;7.40
78961;BMP280;68362;45.970;12.646;2023-04-15T01:17:50;100231.75;;;7.58
78961;BMP280;68362;45.970;12.646;2023-04-15T01:18:53;100234.34;;;7.64
78961;BMP280;68362;45.970;12.646;2023-04-15T01:19:55;100227.50;;;7.70
78961;BMP280;68362;45.970;12.646;2023-04-15T01:21:01;100233.09;;;7.73
78961;BMP280;68362;45.970;12.646;2023-04-15T01:22:04;100227.81;;;7.87
78961;BMP280;68362;45.970;12.646;2023-04-15T01:23:06;100225.00;;;7.82
78961;BMP280;68362;45.970;12.646;2023-04-15T01:24:09;100229.00;;;7.91
78961;BMP280;68362;45.970;12.646;2023-04-15T01:25:17;100234.59;;;7.94
78961;BMP280;68362;45.970;12.646;2023-04-15T01:26:20;100233.53;;;7.70
78961;BMP280;68362;45.970;12.646;2023-04-15T01:27:23;100230.94;;;7.57
78961;BMP280;68362;45.970;12.646;2023-04-15T01:28:25;100225.97;;;7.49
78961;BMP280;68362;45.970;12.646;2023-04-15T01:29:28;100226.03;;;7.36
78961;BMP280;68362;45.970;12.646;2023-04-15T01:30:33;100228.44;;;7.17
78961;BMP280;68362;45.970;12.646;2023-04-15T01:31:35;100228.84;;;7.21
78961;BMP280;68362;45.970;12.646;2023-04-15T01:32:38;100232.06;;;7.16
78961;BMP280;68362;45.970;12.646;2023-04-15T01:33:41;100232.41;;;7.46
78961;BMP280;68362;45.970;12.646;2023-04-15T01:34:44;100226.84;;;7.16
78961;BMP280;68362;45.970;12.646;2023-04-15T01:35:46;100224.06;;;7.11
78961;BMP280;68362;45.970;12.646;2023-04-15T01:36:48;100226.47;;;7.19
78961;BMP280;68362;45.970;12.646;2023-04-15T01:37:50;100227.63;;;7.23
78961;BMP280;68362;45.970;12.646;2023-04-15T01:38:54;100227.41;;;7.38
78961;BMP280;68362;45.970;12.646;2023-04-15T01:39:56;100222.38;;;7.43
78961;BMP280;68362;45.970;12.646;2023-04-15T01:40:59;100225.63;;;7.26
78961;BMP280;68362;45.970;12.646;2023-04-15T01:42:01;100224.41;;;7.35
78961;BMP280;68362;45.970;12.646;2023-04-15T01:43:03;100233.31;;;7.14
78961;BMP280;68362;45.970;12.646;2023-04-15T01:44:05;100222.88;;;7.14
78961;BMP280;68362;45.970;12.646;2023-04-15T01:45:08;100224.09;;;6.98
78961;BMP280;68362;45.970;12.646;2023-04-15T01:46:10;100224.28;;;7.10
78961;BMP280;68362;45.970;12.646;2023-04-15T01:47:13;100223.28;;;7.04
78961;BMP280;68362;45.970;12.646;2023-04-15T01:48:15;100228.88;;;7.08
78961;BMP280;68362;45.970;12.646;2023-04-15T01:49:17;100221.91;;;6.95
78961;BMP280;68362;45.970;12.646;2023-04-15T01:50:19;100222.03;;;7.20
78961;BMP280;68362;45.970;12.646;2023-04-15T01:51:22;100226.47;;;7.06
78961;BMP280;68362;45.970;12.646;2023-04-15T01:52:24;100227.13;;;6.95
78961;BMP280;68362;45.970;12.646;2023-04-15T01:53:26;100220.47;;;6.99
78961;BMP280;68362;45.970;12.646;2023-04-15T01:54:29;100220.28;;;7.01
78961;BMP280;68362;45.970;12.646;2023-04-15T01:55:31;100224.47;;;7.02
78961;BMP280;68362;45.970;12.646;2023-04-15T01:56:33;100224.47;;;7.02
78961;BMP280;68362;45.970;12.646;2023-04-15T01:57:35;100218.47;;;6.81
78961;BMP280;68362;45.970;12.646;2023-04-15T01:58:37;100222.06;;;6.73
78961;BMP280;68362;45.970;12.646;2023-04-15T01:59:41;100219.25;;;6.82
78961;BMP280;68362;45.970;12.646;2023-04-15T02:00:43;100221.69;;;6.77
78961;BMP280;68362;45.970;12.646;2023-04-15T02:01:46;100218.09;;;6.78
78961;BMP280;68362;45.970;12.646;2023-04-15T02:02:48;100222.88;;;6.74
78961;BMP280;68362;45.970;12.646;2023-04-15T02:03:50;100223.50;;;6.69
78961;BMP280;68362;45.970;12.646;2023-04-15T02:04:52;100223.28;;;6.64
78961;BMP280;68362;45.970;12.646;2023-04-15T02:05:55;100218.47;;;6.81
78961;BMP280;68362;45.970;12.646;2023-04-15T02:06:57;100218.06;;;6.64
78961;BMP280;68362;45.970;12.646;2023-04-15T02:07:59;100215.28;;;6.53
78961;BMP280;68362;45.970;12.646;2023-04-15T02:09:02;100222.69;;;6.56
78961;BMP280;68362;45.970;12.646;2023-04-15T02:10:05;100225.50;;;6.54
78961;BMP280;68362;45.970;12.646;2023-04-15T02:11:07;100222.28;;;6.52
78961;BMP280;68362;45.970;12.646;2023-04-15T02:12:09;100225.69;;;6.72
78961;BMP280;68362;45.970;12.646;2023-04-15T02:13:11;100223.28;;;6.71
78961;BMP280;68362;45.970;12.646;2023-04-15T02:14:13;100226.09;;;6.83
78961;BMP280;68362;45.970;12.646;2023-04-15T02:15:15;100225.09;;;6.97
78961;BMP280;68362;45.970;12.646;2023-04-15T02:16:19;100231.31;;;6.96
78961;BMP280;68362;45.970;12.646;2023-04-15T02:17:21;100227.69;;;7.10
78961;BMP280;68362;45.970;12.646;2023-04-15T02:18:23;100221.84;;;7.08
78961;BMP280;68362;45.970;12.646;2023-04-15T02:19:25;100227.28;;;7.13
78961;BMP280;68362;45.970;12.646;2023-04-15T02:20:27;100229.03;;;7.26
78961;BMP280;68362;45.970;12.646;2023-04-15T02:21:31;100226.00;;;7.42
78961;BMP280;68362;45.970;12.646;2023-04-15T02:22:33;100226.75;;;7.49
78961;BMP280;68362;45.970;12.646;2023-04-15T02:23:35;100224.72;;;7.58
78961;BMP280;68362;45.970;12.646;2023-04-15T02:24:38;100227.94;;;7.60
78961;BMP280;68362;45.970;12.646;2023-04-15T02:25:40;100221.50;;;7.63
78961;BMP280;68362;45.970;12.646;2023-04-15T02:26:42;100221.66;;;7.68
78961;BMP280;68362;45.970;12.646;2023-04-15T02:27:44;100223.06;;;7.70
78961;BMP280;68362;45.970;12.646;2023-04-15T02:28:46;100229.09;;;7.71
78961;BMP280;68362;45.970;12.646;2023-04-15T02:29:48;100224.69;;;7.71
78961;BMP280;68362;45.970;12.646;2023-04-15T02:30:52;100225.69;;;7.70
78961;BMP280;68362;45.970;12.646;2023-04-15T02:31:55;100222.22;;;7.77
78961;BMP280;68362;45.970;12.646;2023-04-15T02:32:58;100223.44;;;7.81
78961;BMP280;68362;45.970;12.646;2023-04-15T02:34:00;100230.72;;;7.65
78961;BMP280;68362;45.970;12.646;2023-04-15T02:35:06;100225.44;;;7.79
78961;BMP280;68362;45.970;12.646;2023-04-15T02:36:09;100219.03;;;7.74
78961;BMP280;68362;45.970;12.646;2023-04-15T02:37:13;100224.59;;;7.85
78961;BMP280;68362;45.970;12.646;2023-04-15T02:38:15;100222.41;;;7.82
78961;BMP280;68362;45.970;12.646;2023-04-15T02:39:18;100235.56;;;7.68
78961;BMP280;68362;45.970;12.646;2023-04-15T02:40:20;100220.84;;;7.81
78961;BMP280;68362;45.970;12.646;2023-04-15T02:41:23;100229.31;;;7.69
78961;BMP280;68362;45.970;12.646;2023-04-15T02:42:28;100227.72;;;7.62
78961;BMP280;68362;45.970;12.646;2023-04-15T02:43:31;100231.09;;;7.75
78961;BMP280;68362;45.970;12.646;2023-04-15T02:44:33;100224.84;;;7.77
78961;BMP280;68362;45.970;12.646;2023-04-15T02:45:37;100232.28;;;7.73
78961;BMP280;68362;45.970;12.646;2023-04-15T02:46:39;100230.47;;;7.73
78961;BMP280;68362;45.970;12.646;2023-04-15T02:47:41;100223.84;;;7.78
78961;BMP280;68362;45.970;12.646;2023-04-15T02:48:44;100227.41;;;7.90
78961;BMP280;68362;45.970;12.646;2023-04-15T02:49:47;100227.22;;;7.85
78961;BMP280;68362;45.970;12.646;2023-04-15T02:50:49;100227.22;;;7.85
78961;BMP280;68362;45.970;12.646;2023-04-15T02:51:51;100219.84;;;7.75
78961;BMP280;68362;45.970;12.646;2023-04-15T02:52:53;100229.78;;;7.91
78961;BMP280;68362;45.970;12.646;2023-04-15T02:53:55;100218.09;;;8.00
78961;BMP280;68362;45.970;12.646;2023-04-15T02:54:57;100229.75;;;8.05
78961;BMP280;68362;45.970;12.646;2023-04-15T02:56:01;100224.53;;;7.98
78961;BMP280;68362;45.970;12.646;2023-04-15T02:57:03;100219.16;;;7.93
78961;BMP280;68362;45.970;12.646;2023-04-15T02:58:07;100222.22;;;7.83
78961;BMP280;68362;45.970;12.646;2023-04-15T02:59:11;100227.78;;;7.93
78961;BMP280;68362;45.970;12.646;2023-04-15T03:00:13;100221.63;;;7.81
78961;BMP280;68362;45.970;12.646;2023-04-15T03:01:15;100224.13;;;7.56
78961;BMP280;68362;45.970;12.646;2023-04-15T03:02:17;100225.59;;;7.45
78961;BMP280;68362;45.970;12.646;2023-04-15T03:03:19;100226.53;;;7.58
78961;BMP280;68362;45.970;12.646;2023-04-15T03:04:22;100222.72;;;7.60
78961;BMP280;68362;45.970;12.646;2023-04-15T03:05:24;100224.38;;;7.48
78961;BMP280;68362;45.970;12.646;2023-04-15T03:06:26;100219.38;;;7.40
78961;BMP280;68362;45.970;12.646;2023-04-15T03:07:28;100225.00;;;7.23
78961;BMP280;68362;45.970;12.646;2023-04-15T03:08:31;100218.44;;;7.14
78961;BMP280;68362;45.970;12.646;2023-04-15T03:09:33;100221.06;;;7.01
78961;BMP280;68362;45.970;12.646;2023-04-15T03:10:36;100221.63;;;7.16
78961;BMP280;68362;45.970;12.646;2023-04-15T03:11:38;100231.22;;;7.42
78961;BMP280;68362;45.970;12.646;2023-04-15T03:12:41;100224.53;;;7.53
78961;BMP280;68362;45.970;12.646;2023-04-15T03:13:43;100234.34;;;7.64
78961;BMP280;68362;45.970;12.646;2023-04-15T03:14:45;100235.28;;;7.77
78961;BMP280;68362;45.970;12.646;2023-04-15T03:15:47;100230.50;;;7.80
78961;BMP280;68362;45.970;12.646;2023-04-15T03:16:49;100235.16;;;7.65
78961;BMP280;68362;45.970;12.646;2023-04-15T03:17:52;100231.41;;;7.47
78961;BMP280;68362;45.970;12.646;2023-04-15T03:18:55;100222.94;;;7.52
78961;BMP280;68362;45.970;12.646;2023-04-15T03:19:57;100229.97;;;7.52
78961;BMP280;68362;45.970;12.646;2023-04-15T03:20:59;100227.16;;;7.60
78961;BMP280;68362;45.970;12.646;2023-04-15T03:22:01;100223.91;;;7.64
78961;BMP280;68362;45.970;12.646;2023-04-15T03:23:03;100227.81;;;7.35
78961;BMP280;68362;45.970;12.646;2023-04-15T03:24:05;100223.22;;;7.31
78961;BMP280;68362;45.970;12.646;2023-04-15T03:25:07;100226.81;;;7.36
78961;BMP280;68362;45.970;12.646;2023-04-15T03:26:23;100228.06;;;7.27
78961;BMP280;68362;45.970;12.646;2023-04-15T03:27:25;100218.75;;;7.44
78961;BMP280;68362;45.970;12.646;2023-04-15T03:28:27;100218.56;;;7.33
78961;BMP280;68362;45.970;12.646;2023-04-15T03:29:30;100219.13;;;7.55
78961;BMP280;68362;45.970;12.646;2023-04-15T03:30:32;100227.56;;;7.50
78961;BMP280;68362;45.970;12.646;2023-04-15T03:31:34;100228.63;;;7.29
78961;BMP280;68362;45.970;12.646;2023-04-15T03:32:37;100230.44;;;7.29
78961;BMP280;68362;45.970;12.646;2023-04-15T03:33:39;100229.22;;;7.38
78961;BMP280;68362;45.970;12.646;2023-04-15T03:34:41;100224.78;;;7.38
78961;BMP280;68362;45.970;12.646;2023-04-15T03:35:44;100233.59;;;7.44
78961;BMP280;68362;45.970;12.646;2023-04-15T03:36:46;100233.56;;;7.57
78961;BMP280;68362;45.970;12.646;2023-04-15T03:37:48;100232.38;;;7.53
78961;BMP280;68362;45.970;12.646;2023-04-15T03:38:49;100228.56;;;7.49
78961;BMP280;68362;45.970;12.646;2023-04-15T03:39:52;100229.63;;;7.35
78961;BMP280;68362;45.970;12.646;2023-04-15T03:40:54;100229.44;;;7.30
78961;BMP280;68362;45.970;12.646;2023-04-15T03:41:56;100233.28;;;7.27
78961;BMP280;68362;45.970;12.646;2023-04-15T03:42:58;100232.44;;;7.27
78961;BMP280;68362;45.970;12.646;2023-04-15T03:44:01;100231.28;;;7.16
78961;BMP280;68362;45.970;12.646;2023-04-15T03:45:03;100234.47;;;7.31
78961;BMP280;68362;45.970;12.646;2023-04-15T03:46:05;100232.41;;;7.46
78961;BMP280;68362;45.970;12.646;2023-04-15T03:47:07;100228.41;;;7.37
78961;BMP280;68362;45.970;12.646;2023-04-15T03:48:10;100228.00;;;7.47
78961;BMP280;68362;45.970;12.646;2023-04-15T03:49:19;100221.19;;;7.33
78961;BMP280;68362;45.970;12.646;2023-04-15T03:50:21;100216.38;;;7.36
78961;BMP280;68362;45.970;12.646;2023-04-15T03:51:23;100215.81;;;7.21
78961;BMP280;68362;45.970;12.646;2023-04-15T03:52:25;100222.59;;;7.42
78961;BMP280;68362;45.970;12.646;2023-04-15T03:53:27;100223.75;;;7.53
78961;BMP280;68362;45.970;12.646;2023-04-15T03:54:29;100223.13;;;7.57
78961;BMP280;68362;45.970;12.646;2023-04-15T03:55:31;100223.19;;;7.37
78961;BMP280;68362;45.970;12.646;2023-04-15T03:56:34;100223.63;;;7.28
78961;BMP280;68362;45.970;12.646;2023-04-15T03:57:36;100220.56;;;7.44
78961;BMP280;68362;45.970;12.646;2023-04-15T03:58:40;100221.78;;;7.35
78961;BMP280;68362;45.970;12.646;2023-04-15T03:59:42;100222.34;;;7.50
78961;BMP280;68362;45.970;12.646;2023-04-15T04:00:44;100230.16;;;7.63
78961;BMP280;68362;45.970;12.646;2023-04-15T04:01:46;100228.13;;;7.59
78961;BMP280;68362;45.970;12.646;2023-04-15T04:02:48;100224.38;;;7.48
78961;BMP280;68362;45.970;12.646;2023-04-15T04:03:51;100234.75;;;7.61
78961;BMP280;68362;45.970;12.646;2023-04-15T04:04:53;100226.38;;;7.46
78961;BMP280;68362;45.970;12.646;2023-04-15T04:05:55;100230.38;;;7.48
78961;BMP280;68362;45.970;12.646;2023-04-15T04:06:57;100226.38;;;7.46
78961;BMP280;68362;45.970;12.646;2023-04-15T04:07:59;100223.16;;;7.44
78961;BMP280;68362;45.970;12.646;2023-04-15T04:09:02;100223.16;;;7.44
78961;BMP280;68362;45.970;12.646;2023-04-15T04:10:04;100227.78;;;7.48
78961;BMP280;68362;45.970;12.646;2023-04-15T04:11:06;100230.59;;;7.54
78961;BMP280;68362;45.970;12.646;2023-04-15T04:12:08;100227.22;;;7.40
78961;BMP280;68362;45.970;12.646;2023-04-15T04:13:10;100225.94;;;7.56
78961;BMP280;68362;45.970;12.646;2023-04-15T04:14:12;100226.28;;;7.72
78961;BMP280;68362;45.970;12.646;2023-04-15T04:15:14;100227.31;;;7.71
78961;BMP280;68362;45.970;12.646;2023-04-15T04:16:16;100216.63;;;7.73
78961;BMP280;68362;45.970;12.646;2023-04-15T04:17:19;100223.81;;;7.84
78961;BMP280;68362;45.970;12.646;2023-04-15T04:18:21;100222.78;;;7.92
78961;BMP280;68362;45.970;12.646;2023-04-15T04:19:23;100222.16;;;7.96
78961;BMP280;68362;45.970;12.646;2023-04-15T04:20:26;100221.13;;;7.97
78961;BMP280;68362;45.970;12.646;2023-04-15T04:21:28;100223.44;;;7.81
78961;BMP280;68362;45.970;12.646;2023-04-15T04:22:30;100217.94;;;7.95
78961;BMP280;68362;45.970;12.646;2023-04-15T04:23:32;100222.50;;;7.62
78961;BMP280;68362;45.970;12.646;2023-04-15T04:24:34;100229.09;;;7.71
78961;BMP280;68362;45.970;12.646;2023-04-15T04:25:36;100227.31;;;7.58
78961;BMP280;68362;45.970;12.646;2023-04-15T04:26:38;100221.88;;;7.66
78961;BMP280;68362;45.970;12.646;2023-04-15T04:27:40;100225.69;;;7.70
78961;BMP280;68362;45.970;12.646;2023-04-15T04:28:42;100226.31;;;7.59
78961;BMP280;68362;45.970;12.646;2023-04-15T04:29:45;100227.56;;;7.50
78961;BMP280;68362;45.970;12.646;2023-04-15T04:30:48;100225.34;;;7.60
78961;BMP280;68362;45.970;12.646;2023-04-15T04:31:50;100234.16;;;7.59
78961;BMP280;68362;45.970;12.646;2023-04-15T04:32:52;100231.91;;;7.69
78961;BMP280;68362;45.970;12.646;2023-04-15T04:33:54;100231.53;;;7.59
78961;BMP280;68362;45.970;12.646;2023-04-15T04:34:56;100225.69;;;7.70
78961;BMP280;68362;45.970;12.646;2023-04-15T04:35:58;100239.19;;;7.61
78961;BMP280;68362;45.970;12.646;2023-04-15T04:37:00;100229.91;;;7.71
78961;BMP280;68362;45.970;12.646;2023-04-15T04:38:03;100227.03;;;7.80
78961;BMP280;68362;45.970;12.646;2023-04-15T04:39:05;100235.66;;;7.87
78961;BMP280;68362;45.970;12.646;2023-04-15T04:40:08;100228.00;;;7.92
78961;BMP280;68362;45.970;12.646;2023-04-15T04:41:10;100231.59;;;7.91
78961;BMP280;68362;45.970;12.646;2023-04-15T04:42:12;100235.00;;;7.98
78961;BMP280;68362;45.970;12.646;2023-04-15T04:43:14;100241.06;;;7.92
78961;BMP280;68362;45.970;12.646;2023-04-15T04:44:17;100235.97;;;7.97
78961;BMP280;68362;45.970;12.646;2023-04-15T04:45:19;100236.59;;;7.99
78961;BMP280;68362;45.970;12.646;2023-04-15T04:46:21;100242.25;;;7.96
78961;BMP280;68362;45.970;12.646;2023-04-15T04:47:24;100238.84;;;7.95
78961;BMP280;68362;45.970;12.646;2023-04-15T04:48:26;100239.59;;;8.03
78961;BMP280;68362;45.970;12.646;2023-04-15T04:49:28;100242.66;;;7.93
78961;BMP280;68362;45.970;12.646;2023-04-15T04:50:30;100241.91;;;7.86
78961;BMP280;68362;45.970;12.646;2023-04-15T04:51:32;100241.66;;;7.94
78961;BMP280;68362;45.970;12.646;2023-04-15T04:52:35;100249.88;;;7.91
78961;BMP280;68362;45.970;12.646;2023-04-15T04:53:37;100239.63;;;7.96
78961;BMP280;68362;45.970;12.646;2023-04-15T04:54:39;100237.03;;;7.89
78961;BMP280;68362;45.970;12.646;2023-04-15T04:55:41;100242.84;;;7.91
78961;BMP280;68362;45.970;12.646;2023-04-15T04:56:43;100238.44;;;7.92
78961;BMP280;68362;45.970;12.646;2023-04-15T04:57:45;100245.69;;;7.90
78961;BMP280;68362;45.970;12.646;2023-04-15T04:58:48;100246.31;;;7.85
78961;BMP280;68362;45.970;12.646;2023-04-15T04:59:50;100247.13;;;7.86
78961;BMP280;68362;45.970;12.646;2023-04-15T05:00:52;100252.19;;;7.81
78961;BMP280;68362;45.970;12.646;2023-04-15T05:01:54;100255.19;;;7.78
78961;BMP280;68362;45.970;12.646;2023-04-15T05:02:56;100250.13;;;7.83
78961;BMP280;68362;45.970;12.646;2023-04-15T05:03:59;100247.88;;;7.93
78961;BMP280;68362;45.970;12.646;2023-04-15T05:05:02;100253.28;;;7.98
78961;BMP280;68362;45.970;12.646;2023-04-15T05:06:04;100250.50;;;7.93
78961;BMP280;68362;45.970;12.646;2023-04-15T05:07:09;100258.88;;;7.63
78961;BMP280;68362;45.970;12.646;2023-04-15T05:08:11;100255.59;;;7.81
78961;BMP280;68362;45.970;12.646;2023-04-15T05:09:13;100247.28;;;7.91
78961;BMP280;68362;45.970;12.646;2023-04-15T05:10:15;100255.44;;;7.69
78961;BMP280;68362;45.970;12.646;2023-04-15T05:11:19;100256.66;;;7.60
78961;BMP280;68362;45.970;12.646;2023-04-15T05:12:21;100249.97;;;7.71
78961;BMP280;68362;45.970;12.646;2023-04-15T05:13:23;100251.19;;;7.75
78961;BMP280;68362;45.970;12.646;2023-04-15T05:14:25;100255.16;;;7.84
78961;BMP280;68362;45.970;12.646;2023-04-15T05:15:28;100263.94;;;7.96
78961;BMP280;68362;45.970;12.646;2023-04-15T05:16:30;100250.50;;;7.93
78961;BMP280;68362;45.970;12.646;2023-04-15T05:17:32;100267.34;;;7.97
78961;BMP280;68362;45.970;12.646;2023-04-15T05:18:36;100259.09;;;8.00
78961;BMP280;68362;45.970;12.646;2023-04-15T05:19:38;100263.22;;;8.14
78961;BMP280;68362;45.970;12.646;2023-04-15T05:20:40;100257.81;;;8.16
78961;BMP280;68362;45.970;12.646;2023-04-15T05:21:42;100259.47;;;8.10
78961;BMP280;68362;45.970;12.646;2023-04-15T05:22:44;100259.41;;;8.17
78961;BMP280;68362;45.970;12.646;2023-04-15T05:23:47;100258.66;;;8.10
78961;BMP280;68362;45.970;12.646;2023-04-15T05:24:49;100255.63;;;8.06
78961;BMP280;68362;45.970;12.646;2023-04-15T05:25:50;100257.41;;;8.19
78961;BMP280;68362;45.970;12.646;2023-04-15T05:26:52;100254.84;;;8.06
78961;BMP280;68362;45.970;12.646;2023-04-15T05:27:55;100259.22;;;8.18
78961;BMP280;68362;45.970;12.646;2023-04-15T05:28:57;100257.59;;;8.17
78961;BMP280;68362;45.970;12.646;2023-04-15T05:29:59;100262.34;;;7.95
78961;BMP280;68362;45.970;12.646;2023-04-15T05:31:01;100255.56;;;7.88
78961;BMP280;68362;45.970;12.646;2023-04-15T05:32:03;100256.25;;;8.08
78961;BMP280;68362;45.970;12.646;2023-04-15T05:33:06;100264.38;;;7.93
78961;BMP280;68362;45.970;12.646;2023-04-15T05:34:08;100256.19;;;8.15
78961;BMP280;68362;45.970;12.646;2023-04-15T05:35:10;100257.47;;;8.12
78961;BMP280;68362;45.970;12.646;2023-04-15T05:36:13;100260.63;;;8.14
78961;BMP280;68362;45.970;12.646;2023-04-15T05:37:15;100263.44;;;8.13
78961;BMP280;68362;45.970;12.646;2023-04-15T05:38:17;100256.63;;;8.12
78961;BMP280;68362;45.970;12.646;2023-04-15T05:39:19;100257.94;;;7.96
78961;BMP280;68362;45.970;12.646;2023-04-15T05:40:21;100268.75;;;7.99
78961;BMP280;68362;45.970;12.646;2023-04-15T05:41:24;100259.88;;;8.07
78961;BMP280;68362;45.970;12.646;2023-04-15T05:42:26;100261.78;;;8.25
78961;BMP280;68362;45.970;12.646;2023-04-15T05:43:28;100262.75;;;8.31
78961;BMP280;68362;45.970;12.646;2023-04-15T05:44:30;100266.09;;;8.38
78961;BMP280;68362;45.970;12.646;2023-04-15T05:45:32;100264.94;;;8.34
78961;BMP280;68362;45.970;12.646;2023-04-15T05:46:34;100262.44;;;8.45
78961;BMP280;68362;45.970;12.646;2023-04-15T05:47:37;100262.88;;;8.42
78961;BMP280;68362;45.970;12.646;2023-04-15T05:48:39;100264.03;;;8.46
78961;BMP280;68362;45.970;12.646;2023-04-15T05:49:41;100268.31;;;8.41
78961;BMP280;68362;45.970;12.646;2023-04-15T05:50:43;100269.72;;;8.43
78961;BMP280;68362;45.970;12.646;2023-04-15T05:51:46;100263.94;;;8.60
78961;BMP280;68362;45.970;12.646;2023-04-15T05:52:49;100260.38;;;8.54
78961;BMP280;68362;45.970;12.646;2023-04-15T05:53:50;100268.63;;;8.51
78961;BMP280;68362;45.970;12.646;2023-04-15T05:54:52;100269.22;;;8.53